sensor_id;sensor_type;location;lat;lon;timestamp;pressure;altitude;pressure_sealevel;temperature;humidity
83836;BME280;73859;40.830;43.828;2023-12-29T00:01:38;84811.19;;;-1.06;51.22
83836;BME280;73859;40.830;43.828;2023-12-29T00:04:05;84802.56;;;-1.00;51.21
83836;BME280;73859;40.830;43.828;2023-12-29T00:06:33;84798.47;;;-0.97;50.17
83836;BME280;73859;40.830;43.828;2023-12-29T00:09:06;84804.97;;;-0.96;50.91
83836;BME280;73859;40.830;43.828;2023-12-29T00:11:34;84804.38;;;-1.09;51.13
83836;BME280;73859;40.830;43.828;2023-12-29T00:14:02;84809.19;;;-1.20;50.77
83836;BME280;73859;40.830;43.828;2023-12-29T00:16:29;84804.06;;;-1.29;50.69
83836;BME280;73859;40.830;43.828;2023-12-29T00:18:56;84704.41;;;-2.06;51.36
83836;BME280;73859;40.830;43.828;2023-12-29T00:21:24;84794.03;;;-1.42;51.53
83836;BME280;73859;40.830;43.828;2023-12-29T00:23:51;84807.13;;;-1.43;51.64
83836;BME280;73859;40.830;43.828;2023-12-29T00:26:21;84807.41;;;-1.51;51.99
83836;BME280;73859;40.830;43.828;2023-12-29T00:28:54;84810.47;;;-1.56;52.41
83836;BME280;73859;40.830;43.828;2023-12-29T00:31:22;84806.25;;;-1.59;52.27
83836;BME280;73859;40.830;43.828;2023-12-29T00:33:51;84798.44;;;-1.73;52.81
83836;BME280;73859;40.830;43.828;2023-12-29T00:36:20;84798.97;;;-1.87;53.13
83836;BME280;73859;40.830;43.828;2023-12-29T00:38:48;84723.59;;;-2.58;53.75
83836;BME280;73859;40.830;43.828;2023-12-29T00:41:17;84793.06;;;-2.15;53.92
83836;BME280;73859;40.830;43.828;2023-12-29T00:43:44;84807.81;;;-2.23;53.71
83836;BME280;73859;40.830;43.828;2023-12-29T00:46:14;84797.94;;;-2.52;54.07
83836;BME280;73859;40.830;43.828;2023-12-29T00:48:41;84800.47;;;-2.73;54.77
83836;BME280;73859;40.830;43.828;2023-12-29T00:51:10;84794.09;;;-2.78;54.84
83836;BME280;73859;40.830;43.828;2023-12-29T00:53:37;84793.38;;;-2.78;55.27
83836;BME280;73859;40.830;43.828;2023-12-29T00:56:11;84792.44;;;-2.72;55.62
83836;BME280;73859;40.830;43.828;2023-12-29T00:58:39;84787.56;;;-2.66;55.55
83836;BME280;73859;40.830;43.828;2023-12-29T01:01:07;84789.44;;;-2.58;56.08
83836;BME280;73859;40.830;43.828;2023-12-29T01:03:36;84783.53;;;-2.55;55.85
83836;BME280;73859;40.830;43.828;2023-12-29T01:06:10;84792.91;;;-2.42;55.58
83836;BME280;73859;40.830;43.828;2023-12-29T01:08:38;84789.31;;;-2.32;55.44
83836;BME280;73859;40.830;43.828;2023-12-29T01:11:05;84789.66;;;-2.21;55.22
83836;BME280;73859;40.830;43.828;2023-12-29T01:13:33;84794.06;;;-2.13;54.98
83836;BME280;73859;40.830;43.828;2023-12-29T01:16:00;84790.75;;;-2.01;54.75
83836;BME280;73859;40.830;43.828;2023-12-29T01:18:28;84784.91;;;-2.10;55.03
83836;BME280;73859;40.830;43.828;2023-12-29T01:20:56;84786.00;;;-2.20;54.58
83836;BME280;73859;40.830;43.828;2023-12-29T01:23:23;84794.25;;;-2.29;55.21
83836;BME280;73859;40.830;43.828;2023-12-29T01:25:51;84781.31;;;-2.53;55.62
83836;BME280;73859;40.830;43.828;2023-12-29T01:28:18;84795.97;;;-2.48;56.09
83836;BME280;73859;40.830;43.828;2023-12-29T01:30:45;84797.94;;;-2.52;56.04
83836;BME280;73859;40.830;43.828;2023-12-29T01:33:13;84795.63;;;-2.59;56.84
83836;BME280;73859;40.830;43.828;2023-12-29T01:35:40;84793.63;;;-2.64;57.03
83836;BME280;73859;40.830;43.828;2023-12-29T01:38:08;84788.69;;;-2.67;57.14
83836;BME280;73859;40.830;43.828;2023-12-29T01:40:45;84750.63;;;-2.98;56.98
83836;BME280;73859;40.830;43.828;2023-12-29T01:43:13;84791.38;;;-2.83;57.26
83836;BME280;73859;40.830;43.828;2023-12-29T01:45:42;84791.47;;;-2.87;57.07
83836;BME280;73859;40.830;43.828;2023-12-29T01:48:23;84782.19;;;-2.90;57.45
83836;BME280;73859;40.830;43.828;2023-12-29T01:50:52;84776.13;;;-2.92;57.05
83836;BME280;73859;40.830;43.828;2023-12-29T01:53:21;84730.03;;;-3.31;57.27
83836;BME280;73859;40.830;43.828;2023-12-29T01:56:05;84786.97;;;-2.92;57.18
83836;BME280;73859;40.830;43.828;2023-12-29T01:58:34;84784.44;;;-2.92;57.54
83836;BME280;73859;40.830;43.828;2023-12-29T02:01:03;84782.19;;;-2.90;57.93
83836;BME280;73859;40.830;43.828;2023-12-29T02:03:32;84781.78;;;-2.88;57.76
83836;BME280;73859;40.830;43.828;2023-12-29T02:06:00;84791.91;;;-2.88;57.16
83836;BME280;73859;40.830;43.828;2023-12-29T02:08:28;84709.25;;;-3.48;58.09
83836;BME280;73859;40.830;43.828;2023-12-29T02:10:56;84790.78;;;-2.87;57.55
83836;BME280;73859;40.830;43.828;2023-12-29T02:13:23;84789.38;;;-2.88;57.60
83836;BME280;73859;40.830;43.828;2023-12-29T02:15:52;84799.06;;;-2.87;57.58
83836;BME280;73859;40.830;43.828;2023-12-29T02:18:22;84718.16;;;-3.43;58.00
83836;BME280;73859;40.830;43.828;2023-12-29T02:20:51;84789.56;;;-2.83;57.69
83836;BME280;73859;40.830;43.828;2023-12-29T02:23:18;84790.16;;;-2.79;57.56
83836;BME280;73859;40.830;43.828;2023-12-29T02:25:45;84787.03;;;-2.83;57.39
83836;BME280;73859;40.830;43.828;2023-12-29T02:30:44;84788.81;;;-2.71;57.60
83836;BME280;73859;40.830;43.828;2023-12-29T02:33:20;84795.28;;;-2.70;57.01
83836;BME280;73859;40.830;43.828;2023-12-29T02:35:52;84795.28;;;-2.70;56.74
83836;BME280;73859;40.830;43.828;2023-12-29T02:38:20;84797.28;;;-2.65;57.16
83836;BME280;73859;40.830;43.828;2023-12-29T02:40:47;84789.56;;;-2.61;56.69
83836;BME280;73859;40.830;43.828;2023-12-29T02:43:15;84785.50;;;-2.59;56.87
83836;BME280;73859;40.830;43.828;2023-12-29T02:45:42;84778.47;;;-2.55;56.43
83836;BME280;73859;40.830;43.828;2023-12-29T02:48:10;84786.53;;;-2.47;56.22
83836;BME280;73859;40.830;43.828;2023-12-29T02:50:38;84786.31;;;-2.40;55.82
83836;BME280;73859;40.830;43.828;2023-12-29T02:53:06;84780.97;;;-2.42;56.08
83836;BME280;73859;40.830;43.828;2023-12-29T02:55:34;84704.94;;;-3.04;56.20
83836;BME280;73859;40.830;43.828;2023-12-29T02:58:02;84794.84;;;-2.47;56.13
83836;BME280;73859;40.830;43.828;2023-12-29T03:00:29;84786.16;;;-2.45;55.63
83836;BME280;73859;40.830;43.828;2023-12-29T03:02:57;84785.38;;;-2.55;56.46
83836;BME280;73859;40.830;43.828;2023-12-29T03:05:25;84790.34;;;-2.52;55.83
83836;BME280;73859;40.830;43.828;2023-12-29T03:07:52;84790.84;;;-2.57;56.12
83836;BME280;73859;40.830;43.828;2023-12-29T03:10:20;84798.16;;;-2.59;55.49
83836;BME280;73859;40.830;43.828;2023-12-29T03:12:47;84795.03;;;-2.63;55.39
83836;BME280;73859;40.830;43.828;2023-12-29T03:15:15;84692.44;;;-3.41;55.58
83836;BME280;73859;40.830;43.828;2023-12-29T03:17:43;84688.72;;;-3.50;55.96
83836;BME280;73859;40.830;43.828;2023-12-29T03:20:10;84815.00;;;-2.65;55.75
83836;BME280;73859;40.830;43.828;2023-12-29T03:22:38;84803.44;;;-2.66;56.00
83836;BME280;73859;40.830;43.828;2023-12-29T03:25:06;84791.03;;;-2.73;55.45
83836;BME280;73859;40.830;43.828;2023-12-29T03:27:33;84807.00;;;-2.63;55.31
83836;BME280;73859;40.830;43.828;2023-12-29T03:30:01;84808.09;;;-2.64;55.36
83836;BME280;73859;40.830;43.828;2023-12-29T03:32:28;84782.28;;;-2.81;55.14
83836;BME280;73859;40.830;43.828;2023-12-29T03:34:56;84797.63;;;-2.75;54.94
83836;BME280;73859;40.830;43.828;2023-12-29T03:37:23;84806.75;;;-2.78;54.96
83836;BME280;73859;40.830;43.828;2023-12-29T03:39:51;84798.13;;;-2.80;54.99
83836;BME280;73859;40.830;43.828;2023-12-29T03:42:18;84801.97;;;-2.76;54.89
83836;BME280;73859;40.830;43.828;2023-12-29T03:44:46;84803.69;;;-2.73;54.68
83836;BME280;73859;40.830;43.828;2023-12-29T03:47:13;84801.16;;;-2.73;54.65
83836;BME280;73859;40.830;43.828;2023-12-29T03:49:40;84802.69;;;-2.75;54.85
83836;BME280;73859;40.830;43.828;2023-12-29T03:52:08;84810.59;;;-2.73;54.57
83836;BME280;73859;40.830;43.828;2023-12-29T03:54:35;84806.91;;;-2.72;54.78
83836;BME280;73859;40.830;43.828;2023-12-29T03:57:03;84799.03;;;-2.74;54.29
83836;BME280;73859;40.830;43.828;2023-12-29T03:59:30;84800.47;;;-2.73;54.83
83836;BME280;73859;40.830;43.828;2023-12-29T04:01:58;84804.69;;;-2.70;54.39
83836;BME280;73859;40.830;43.828;2023-12-29T04:04:25;84797.81;;;-2.70;54.02
83836;BME280;73859;40.830;43.828;2023-12-29T04:06:53;84797.38;;;-2.68;53.71
83836;BME280;73859;40.830;43.828;2023-12-29T04:09:21;84778.19;;;-2.78;53.71
83836;BME280;73859;40.830;43.828;2023-12-29T04:11:48;84800.34;;;-2.70;54.28
83836;BME280;73859;40.830;43.828;2023-12-29T04:14:15;84791.84;;;-2.76;54.11
83836;BME280;73859;40.830;43.828;2023-12-29T04:16:43;84800.88;;;-2.75;53.93
83836;BME280;73859;40.830;43.828;2023-12-29T04:19:11;84792.75;;;-2.70;54.01
83836;BME280;73859;40.830;43.828;2023-12-29T04:21:42;84798.09;;;-2.68;53.84
83836;BME280;73859;40.830;43.828;2023-12-29T04:24:10;84797.28;;;-2.65;53.84
83836;BME280;73859;40.830;43.828;2023-12-29T04:26:37;84682.53;;;-3.49;53.79
83836;BME280;73859;40.830;43.828;2023-12-29T04:29:05;84800.75;;;-2.71;53.95
83836;BME280;73859;40.830;43.828;2023-12-29T04:31:33;84807.03;;;-2.76;54.16
83836;BME280;73859;40.830;43.828;2023-12-29T04:34:01;84816.34;;;-2.73;53.66
83836;BME280;73859;40.830;43.828;2023-12-29T04:36:28;84815.53;;;-2.70;54.11
83836;BME280;73859;40.830;43.828;2023-12-29T04:38:56;84694.19;;;-3.51;53.95
83836;BME280;73859;40.830;43.828;2023-12-29T04:41:23;84815.41;;;-2.66;53.59
83836;BME280;73859;40.830;43.828;2023-12-29T04:43:50;84811.88;;;-2.69;53.34
83836;BME280;73859;40.830;43.828;2023-12-29T04:46:18;84700.72;;;-3.41;53.71
83836;BME280;73859;40.830;43.828;2023-12-29T04:48:45;84811.63;;;-2.62;53.29
83836;BME280;73859;40.830;43.828;2023-12-29T04:51:13;84815.53;;;-2.48;53.51
83836;BME280;73859;40.830;43.828;2023-12-29T04:53:40;84824.59;;;-2.38;53.15
83836;BME280;73859;40.830;43.828;2023-12-29T04:56:07;84823.13;;;-2.26;52.68
83836;BME280;73859;40.830;43.828;2023-12-29T04:58:35;84821.34;;;-2.17;52.35
83836;BME280;73859;40.830;43.828;2023-12-29T05:01:02;84818.16;;;-2.08;52.75
83836;BME280;73859;40.830;43.828;2023-12-29T05:03:30;84828.31;;;-1.99;52.08
83836;BME280;73859;40.830;43.828;2023-12-29T05:05:57;84827.09;;;-1.94;52.00
83836;BME280;73859;40.830;43.828;2023-12-29T05:08:25;84822.19;;;-1.89;52.02
83836;BME280;73859;40.830;43.828;2023-12-29T05:10:52;84818.16;;;-1.77;51.65
83836;BME280;73859;40.830;43.828;2023-12-29T05:13:19;84811.97;;;-1.67;51.64
83836;BME280;73859;40.830;43.828;2023-12-29T05:15:47;84814.97;;;-1.60;52.01
83836;BME280;73859;40.830;43.828;2023-12-29T05:18:14;84709.81;;;-2.26;51.44
83836;BME280;73859;40.830;43.828;2023-12-29T05:20:42;84777.19;;;-1.67;51.52
83836;BME280;73859;40.830;43.828;2023-12-29T05:23:10;84737.28;;;-1.84;51.46
83836;BME280;73859;40.830;43.828;2023-12-29T05:25:37;84813.28;;;-1.14;51.32
83836;BME280;73859;40.830;43.828;2023-12-29T05:28:05;84818.09;;;-0.98;50.74
83836;BME280;73859;40.830;43.828;2023-12-29T05:30:32;84813.31;;;-0.86;50.65
83836;BME280;73859;40.830;43.828;2023-12-29T05:33:00;84813.19;;;-0.74;50.11
83836;BME280;73859;40.830;43.828;2023-12-29T05:35:27;84806.81;;;-0.69;50.42
83836;BME280;73859;40.830;43.828;2023-12-29T05:37:55;84820.66;;;-0.52;50.17
83836;BME280;73859;40.830;43.828;2023-12-29T05:40:22;84823.50;;;-0.41;50.37
83836;BME280;73859;40.830;43.828;2023-12-29T05:42:50;84818.53;;;-0.35;50.49
83836;BME280;73859;40.830;43.828;2023-12-29T05:45:18;84817.13;;;-0.27;50.43
83836;BME280;73859;40.830;43.828;2023-12-29T05:47:45;84817.81;;;-0.18;50.51
83836;BME280;73859;40.830;43.828;2023-12-29T05:50:13;84820.75;;;-0.01;50.12
83836;BME280;73859;40.830;43.828;2023-12-29T05:52:40;84816.91;;;0.13;49.85
83836;BME280;73859;40.830;43.828;2023-12-29T05:55:08;84816.31;;;0.27;50.24
83836;BME280;73859;40.830;43.828;2023-12-29T05:57:35;84812.75;;;0.42;49.58
83836;BME280;73859;40.830;43.828;2023-12-29T06:00:03;84812.53;;;0.55;49.69
83836;BME280;73859;40.830;43.828;2023-12-29T06:02:37;84812.75;;;0.75;48.89
83836;BME280;73859;40.830;43.828;2023-12-29T06:05:05;84815.22;;;0.93;48.72
83836;BME280;73859;40.830;43.828;2023-12-29T06:07:33;84807.91;;;1.10;48.08
83836;BME280;73859;40.830;43.828;2023-12-29T06:10:01;84813.75;;;1.25;47.97
83836;BME280;73859;40.830;43.828;2023-12-29T06:12:29;84800.84;;;1.29;47.83
83836;BME280;73859;40.830;43.828;2023-12-29T06:14:56;84809.34;;;1.49;47.67
83836;BME280;73859;40.830;43.828;2023-12-29T06:17:24;84811.69;;;1.62;47.68
83836;BME280;73859;40.830;43.828;2023-12-29T06:19:52;84813.72;;;1.73;47.41
83836;BME280;73859;40.830;43.828;2023-12-29T06:22:19;84807.94;;;1.87;47.01
83836;BME280;73859;40.830;43.828;2023-12-29T06:24:47;84816.75;;;2.01;45.73
83836;BME280;73859;40.830;43.828;2023-12-29T06:27:15;84718.28;;;1.35;45.86
83836;BME280;73859;40.830;43.828;2023-12-29T06:29:43;84819.25;;;2.24;45.44
83836;BME280;73859;40.830;43.828;2023-12-29T06:32:10;84815.75;;;2.36;45.74
83836;BME280;73859;40.830;43.828;2023-12-29T06:34:38;84823.03;;;2.43;45.02
83836;BME280;73859;40.830;43.828;2023-12-29T06:37:05;84829.53;;;2.59;45.40
83836;BME280;73859;40.830;43.828;2023-12-29T06:39:33;84834.38;;;2.72;45.04
83836;BME280;73859;40.830;43.828;2023-12-29T06:42:00;84829.09;;;2.75;43.84
83836;BME280;73859;40.830;43.828;2023-12-29T06:44:28;84828.28;;;2.84;44.17
83836;BME280;73859;40.830;43.828;2023-12-29T06:46:55;84823.34;;;2.95;43.79
83836;BME280;73859;40.830;43.828;2023-12-29T06:49:22;84828.66;;;3.12;43.03
83836;BME280;73859;40.830;43.828;2023-12-29T06:51:51;84820.69;;;3.24;44.48
83836;BME280;73859;40.830;43.828;2023-12-29T06:54:18;84757.72;;;2.86;43.04
83836;BME280;73859;40.830;43.828;2023-12-29T06:56:46;84835.00;;;3.51;42.37
83836;BME280;73859;40.830;43.828;2023-12-29T06:59:15;84831.78;;;3.76;42.21
83836;BME280;73859;40.830;43.828;2023-12-29T07:01:43;84833.78;;;4.07;42.09
83836;BME280;73859;40.830;43.828;2023-12-29T07:04:11;84834.00;;;4.29;41.25
83836;BME280;73859;40.830;43.828;2023-12-29T07:06:38;84726.91;;;3.76;41.28
83836;BME280;73859;40.830;43.828;2023-12-29T07:09:06;84837.84;;;4.71;40.70
83836;BME280;73859;40.830;43.828;2023-12-29T07:11:35;84763.03;;;4.35;41.12
83836;BME280;73859;40.830;43.828;2023-12-29T07:14:03;84833.19;;;5.01;41.35
83836;BME280;73859;40.830;43.828;2023-12-29T07:16:30;84839.03;;;5.01;41.10
83836;BME280;73859;40.830;43.828;2023-12-29T07:18:57;84832.25;;;4.98;40.47
83836;BME280;73859;40.830;43.828;2023-12-29T07:21:25;84833.16;;;4.95;41.00
83836;BME280;73859;40.830;43.828;2023-12-29T07:23:52;84831.50;;;4.92;40.69
83836;BME280;73859;40.830;43.828;2023-12-29T07:26:20;84824.69;;;4.83;40.56
83836;BME280;73859;40.830;43.828;2023-12-29T07:28:47;84825.72;;;4.66;38.56
83836;BME280;73859;40.830;43.828;2023-12-29T07:31:15;84841.28;;;4.62;40.58
83836;BME280;73859;40.830;43.828;2023-12-29T07:33:42;84849.31;;;4.50;40.86
83836;BME280;73859;40.830;43.828;2023-12-29T07:36:10;84855.34;;;4.47;39.83
83836;BME280;73859;40.830;43.828;2023-12-29T07:38:40;84855.44;;;4.32;41.40
83836;BME280;73859;40.830;43.828;2023-12-29T07:41:08;84850.91;;;4.01;41.65
83836;BME280;73859;40.830;43.828;2023-12-29T07:43:35;84857.91;;;3.80;41.66
83836;BME280;73859;40.830;43.828;2023-12-29T07:46:03;84847.28;;;3.67;41.25
83836;BME280;73859;40.830;43.828;2023-12-29T07:48:30;84852.22;;;3.71;40.81
83836;BME280;73859;40.830;43.828;2023-12-29T07:51:05;84856.28;;;3.83;41.46
83836;BME280;73859;40.830;43.828;2023-12-29T07:53:33;84859.16;;;3.90;40.92
83836;BME280;73859;40.830;43.828;2023-12-29T07:56:00;84852.28;;;3.97;41.48
83836;BME280;73859;40.830;43.828;2023-12-29T07:58:27;84853.09;;;3.88;41.36
83836;BME280;73859;40.830;43.828;2023-12-29T08:00:55;84847.41;;;3.78;40.40
83836;BME280;73859;40.830;43.828;2023-12-29T08:03:23;84857.38;;;3.76;40.55
83836;BME280;73859;40.830;43.828;2023-12-29T08:05:50;84855.59;;;3.82;40.13
83836;BME280;73859;40.830;43.828;2023-12-29T08:08:18;84796.50;;;3.40;40.41
83836;BME280;73859;40.830;43.828;2023-12-29T08:10:45;84772.00;;;3.13;40.33
83836;BME280;73859;40.830;43.828;2023-12-29T08:13:12;84837.69;;;3.62;40.49
83836;BME280;73859;40.830;43.828;2023-12-29T08:15:40;84836.06;;;3.65;41.07
83836;BME280;73859;40.830;43.828;2023-12-29T08:18:08;84843.16;;;3.75;41.43
83836;BME280;73859;40.830;43.828;2023-12-29T08:20:35;84841.44;;;3.87;41.69
83836;BME280;73859;40.830;43.828;2023-12-29T08:23:03;84791.72;;;3.68;41.35
83836;BME280;73859;40.830;43.828;2023-12-29T08:25:30;84835.63;;;4.07;41.55
83836;BME280;73859;40.830;43.828;2023-12-29T08:27:58;84843.78;;;4.31;40.67
83836;BME280;73859;40.830;43.828;2023-12-29T08:30:26;84837.72;;;4.54;39.45
83836;BME280;73859;40.830;43.828;2023-12-29T08:32:53;84831.38;;;4.75;39.33
83836;BME280;73859;40.830;43.828;2023-12-29T08:35:21;84826.63;;;4.94;39.24
83836;BME280;73859;40.830;43.828;2023-12-29T08:37:48;84817.66;;;5.10;38.54
83836;BME280;73859;40.830;43.828;2023-12-29T08:40:16;84817.47;;;5.19;38.64
83836;BME280;73859;40.830;43.828;2023-12-29T08:42:43;84813.28;;;5.21;39.22
83836;BME280;73859;40.830;43.828;2023-12-29T08:45:11;84805.59;;;5.21;38.09
83836;BME280;73859;40.830;43.828;2023-12-29T08:47:38;84800.97;;;5.25;37.94
83836;BME280;73859;40.830;43.828;2023-12-29T08:50:06;84797.72;;;5.30;38.06
83836;BME280;73859;40.830;43.828;2023-12-29T08:52:34;84800.75;;;5.29;38.05
83836;BME280;73859;40.830;43.828;2023-12-29T08:55:01;84794.69;;;5.26;38.43
83836;BME280;73859;40.830;43.828;2023-12-29T08:57:29;84783.69;;;5.20;37.29
83836;BME280;73859;40.830;43.828;2023-12-29T08:59:56;84791.66;;;5.28;37.24
83836;BME280;73859;40.830;43.828;2023-12-29T09:02:23;84793.53;;;5.33;37.85
83836;BME280;73859;40.830;43.828;2023-12-29T09:04:51;84791.94;;;5.35;37.88
83836;BME280;73859;40.830;43.828;2023-12-29T09:07:18;84784.44;;;5.32;38.26
83836;BME280;73859;40.830;43.828;2023-12-29T09:09:46;84792.84;;;5.32;37.08
83836;BME280;73859;40.830;43.828;2023-12-29T09:12:13;84793.31;;;5.36;37.52
83836;BME280;73859;40.830;43.828;2023-12-29T09:14:40;84791.22;;;5.35;36.75
83836;BME280;73859;40.830;43.828;2023-12-29T09:17:08;84794.28;;;5.39;37.76
83836;BME280;73859;40.830;43.828;2023-12-29T09:19:36;84786.13;;;5.40;37.11
83836;BME280;73859;40.830;43.828;2023-12-29T09:22:06;84777.28;;;5.41;37.63
83836;BME280;73859;40.830;43.828;2023-12-29T09:24:34;84782.41;;;5.47;37.13
83836;BME280;73859;40.830;43.828;2023-12-29T09:27:02;84768.00;;;5.55;37.57
83836;BME280;73859;40.830;43.828;2023-12-29T09:29:52;84756.81;;;5.53;36.71
83836;BME280;73859;40.830;43.828;2023-12-29T09:32:20;84764.06;;;5.65;36.68
83836;BME280;73859;40.830;43.828;2023-12-29T09:34:47;84762.69;;;5.70;36.74
83836;BME280;73859;40.830;43.828;2023-12-29T09:37:15;84766.69;;;5.76;36.52
83836;BME280;73859;40.830;43.828;2023-12-29T09:39:42;84756.03;;;5.89;37.13
83836;BME280;73859;40.830;43.828;2023-12-29T09:42:20;84755.44;;;6.38;35.93
83836;BME280;73859;40.830;43.828;2023-12-29T09:44:51;84733.75;;;7.86;33.64
83836;BME280;73859;40.830;43.828;2023-12-29T09:47:23;84742.44;;;9.06;33.33
83836;BME280;73859;40.830;43.828;2023-12-29T09:49:52;84734.44;;;10.06;32.74
83836;BME280;73859;40.830;43.828;2023-12-29T09:52:22;84734.34;;;11.05;31.07
83836;BME280;73859;40.830;43.828;2023-12-29T09:54:51;84725.31;;;11.57;31.43
83836;BME280;73859;40.830;43.828;2023-12-29T19:43:47;84835.22;;;-1.69;55.60
83836;BME280;73859;40.830;43.828;2023-12-29T19:46:15;84833.22;;;-1.43;55.16
83836;BME280;73859;40.830;43.828;2023-12-29T19:48:44;84836.66;;;-1.19;55.14
83836;BME280;73859;40.830;43.828;2023-12-29T19:51:12;84764.72;;;-1.43;54.32
83836;BME280;73859;40.830;43.828;2023-12-29T19:53:39;84825.31;;;-0.78;53.90
83836;BME280;73859;40.830;43.828;2023-12-29T19:56:06;84833.50;;;-0.65;53.69
83836;BME280;73859;40.830;43.828;2023-12-29T19:58:34;84833.66;;;-0.59;53.81
83836;BME280;73859;40.830;43.828;2023-12-29T20:01:03;84827.00;;;-0.57;54.10
83836;BME280;73859;40.830;43.828;2023-12-29T20:03:31;84828.56;;;-0.50;53.78
83836;BME280;73859;40.830;43.828;2023-12-29T20:05:58;84834.63;;;-0.38;53.86
83836;BME280;73859;40.830;43.828;2023-12-29T20:08:26;84757.47;;;-0.77;53.48
83836;BME280;73859;40.830;43.828;2023-12-29T20:10:54;84828.97;;;-0.24;53.48
83836;BME280;73859;40.830;43.828;2023-12-29T20:13:21;84829.81;;;-0.18;52.72
83836;BME280;73859;40.830;43.828;2023-12-29T20:15:48;84820.22;;;-0.23;52.63
83836;BME280;73859;40.830;43.828;2023-12-29T20:18:16;84828.53;;;-0.14;52.82
83836;BME280;73859;40.830;43.828;2023-12-29T20:20:43;84759.84;;;-0.56;52.53
83836;BME280;73859;40.830;43.828;2023-12-29T20:23:11;84827.41;;;-0.13;52.76
83836;BME280;73859;40.830;43.828;2023-12-29T20:25:38;84815.72;;;-0.19;52.41
83836;BME280;73859;40.830;43.828;2023-12-29T20:28:07;84806.84;;;-0.33;53.32
83836;BME280;73859;40.830;43.828;2023-12-29T20:30:35;84801.88;;;-0.36;52.74
83836;BME280;73859;40.830;43.828;2023-12-29T20:33:03;84830.25;;;-0.20;52.99
83836;BME280;73859;40.830;43.828;2023-12-29T20:35:31;84805.97;;;-0.39;53.02
83836;BME280;73859;40.830;43.828;2023-12-29T20:37:58;84824.75;;;-0.27;52.87
83836;BME280;73859;40.830;43.828;2023-12-29T20:40:26;84815.13;;;-0.32;52.88
83836;BME280;73859;40.830;43.828;2023-12-29T20:42:54;84813.59;;;-0.39;52.97
83836;BME280;73859;40.830;43.828;2023-12-29T20:45:22;84825.16;;;-0.29;53.41
83836;BME280;73859;40.830;43.828;2023-12-29T20:47:49;84813.44;;;-0.35;52.73
83836;BME280;73859;40.830;43.828;2023-12-29T20:50:17;84826.16;;;-0.26;52.37
83836;BME280;73859;40.830;43.828;2023-12-29T20:52:45;84817.56;;;-0.38;52.37
83836;BME280;73859;40.830;43.828;2023-12-29T20:55:12;84820.53;;;-0.48;52.33
83836;BME280;73859;40.830;43.828;2023-12-29T20:57:40;84799.78;;;-0.56;52.51
83836;BME280;73859;40.830;43.828;2023-12-29T21:00:07;84819.81;;;-0.49;52.93
83836;BME280;73859;40.830;43.828;2023-12-29T21:02:35;84784.69;;;-0.78;52.53
83836;BME280;73859;40.830;43.828;2023-12-29T21:05:03;84815.72;;;-0.65;52.87
83836;BME280;73859;40.830;43.828;2023-12-29T21:07:36;84813.19;;;-0.65;52.54
83836;BME280;73859;40.830;43.828;2023-12-29T21:10:03;84792.44;;;-0.81;52.93
83836;BME280;73859;40.830;43.828;2023-12-29T21:12:31;84805.56;;;-0.74;53.16
83836;BME280;73859;40.830;43.828;2023-12-29T21:15:00;84804.41;;;-0.73;53.17
83836;BME280;73859;40.830;43.828;2023-12-29T21:17:27;84814.56;;;-0.73;53.13
83836;BME280;73859;40.830;43.828;2023-12-29T21:19:56;84808.09;;;-0.74;52.73
83836;BME280;73859;40.830;43.828;2023-12-29T21:22:24;84805.72;;;-0.77;53.11
83836;BME280;73859;40.830;43.828;2023-12-29T21:24:51;84722.03;;;-1.26;52.67
83836;BME280;73859;40.830;43.828;2023-12-29T21:27:19;84801.19;;;-0.73;52.59
83836;BME280;73859;40.830;43.828;2023-12-29T21:29:46;84759.25;;;-1.05;52.89
83836;BME280;73859;40.830;43.828;2023-12-29T21:32:20;84802.19;;;-0.71;52.72
83836;BME280;73859;40.830;43.828;2023-12-29T21:34:49;84800.63;;;-0.68;52.42
83836;BME280;73859;40.830;43.828;2023-12-29T21:37:17;84793.44;;;-0.70;52.17
83836;BME280;73859;40.830;43.828;2023-12-29T21:39:44;84799.34;;;-0.73;52.38
83836;BME280;73859;40.830;43.828;2023-12-29T21:42:12;84802.47;;;-0.78;52.89
83836;BME280;73859;40.830;43.828;2023-12-29T21:44:40;84796.09;;;-0.82;52.70
83836;BME280;73859;40.830;43.828;2023-12-29T21:47:09;84782.41;;;-0.94;52.63
83836;BME280;73859;40.830;43.828;2023-12-29T21:49:36;84796.38;;;-0.89;53.21
83836;BME280;73859;40.830;43.828;2023-12-29T21:52:06;84787.78;;;-0.92;52.68
83836;BME280;73859;40.830;43.828;2023-12-29T21:54:34;84706.66;;;-1.50;52.82
83836;BME280;73859;40.830;43.828;2023-12-29T21:57:02;84789.44;;;-0.98;53.30
83836;BME280;73859;40.830;43.828;2023-12-29T21:59:30;84791.16;;;-1.04;53.55
83836;BME280;73859;40.830;43.828;2023-12-29T22:01:59;84788.75;;;-1.08;53.95
83836;BME280;73859;40.830;43.828;2023-12-29T22:04:27;84787.06;;;-1.11;54.47
83836;BME280;73859;40.830;43.828;2023-12-29T22:06:54;84783.66;;;-1.08;53.88
83836;BME280;73859;40.830;43.828;2023-12-29T22:09:22;84774.09;;;-1.04;53.45
83836;BME280;73859;40.830;43.828;2023-12-29T22:11:49;84779.44;;;-1.11;53.35
83836;BME280;73859;40.830;43.828;2023-12-29T22:14:17;84778.88;;;-1.06;53.25
83836;BME280;73859;40.830;43.828;2023-12-29T22:16:44;84782.25;;;-1.09;53.16
83836;BME280;73859;40.830;43.828;2023-12-29T22:19:12;84780.41;;;-1.08;53.43
83836;BME280;73859;40.830;43.828;2023-12-29T22:21:39;84785.22;;;-1.10;53.65
83836;BME280;73859;40.830;43.828;2023-12-29T22:24:10;84691.78;;;-1.88;53.66
83836;BME280;73859;40.830;43.828;2023-12-29T22:26:38;84762.59;;;-1.54;53.84
83836;BME280;73859;40.830;43.828;2023-12-29T22:29:07;84782.19;;;-1.45;54.09
83836;BME280;73859;40.830;43.828;2023-12-29T22:31:34;84775.72;;;-1.37;53.65
83836;BME280;73859;40.830;43.828;2023-12-29T22:34:02;84722.81;;;-1.66;53.25
83836;BME280;73859;40.830;43.828;2023-12-29T22:36:30;84773.75;;;-1.33;53.42
83836;BME280;73859;40.830;43.828;2023-12-29T22:38:57;84759.78;;;-1.46;53.68
83836;BME280;73859;40.830;43.828;2023-12-29T22:41:25;84773.91;;;-1.36;53.93
83836;BME280;73859;40.830;43.828;2023-12-29T22:43:52;84776.84;;;-1.38;54.54
83836;BME280;73859;40.830;43.828;2023-12-29T22:46:20;84765.56;;;-1.46;53.92